createdAt,value
2023-01-10T00:00:42.364Z,6.80
2023-01-10T00:02:45.193Z,6.80
2023-01-10T00:04:47.708Z,6.70
2023-01-10T00:06:51.264Z,6.70
2023-01-10T00:08:53.782Z,6.70
2023-01-10T00:10:56.294Z,6.70
2023-01-10T00:13:17.515Z,6.70
2023-01-10T00:15:20.596Z,6.70
2023-01-10T00:17:23.604Z,6.70
2023-01-10T00:19:26.630Z,6.70
2023-01-10T00:21:31.003Z,6.70
2023-01-10T00:23:34.662Z,6.70
2023-01-10T00:25:38.427Z,6.70
2023-01-10T00:27:46.479Z,6.70
2023-01-10T00:29:50.625Z,6.70
2023-01-10T00:31:53.398Z,6.70
2023-01-10T00:33:56.117Z,6.70
2023-01-10T00:36:01.509Z,6.70
2023-01-10T00:38:24.738Z,6.70
2023-01-10T00:40:44.371Z,6.60
2023-01-10T00:43:08.998Z,6.70
2023-01-10T00:45:16.811Z,6.70
2023-01-10T00:47:20.917Z,6.60
2023-01-10T00:49:24.603Z,6.60
2023-01-10T00:51:27.332Z,6.60
2023-01-10T00:53:30.475Z,6.60
2023-01-10T00:55:33.656Z,6.70
2023-01-10T00:57:36.290Z,6.70
2023-01-10T00:59:38.777Z,6.70
2023-01-10T01:01:41.574Z,6.80
2023-01-10T01:03:44.135Z,6.80
2023-01-10T01:05:47.987Z,6.70
2023-01-10T01:07:50.932Z,6.70
2023-01-10T01:10:11.583Z,6.70
2023-01-10T01:12:14.047Z,6.70
2023-01-10T01:14:16.563Z,6.70
2023-01-10T01:16:19.087Z,6.70
2023-01-10T01:18:21.819Z,6.70
2023-01-10T01:20:24.363Z,6.70
2023-01-10T01:22:26.864Z,6.70
2023-01-10T01:24:29.618Z,6.70
2023-01-10T01:26:32.093Z,6.70
2023-01-10T01:28:34.754Z,6.70
2023-01-10T01:30:37.245Z,6.70
2023-01-10T01:32:39.751Z,6.70
2023-01-10T01:34:43.163Z,6.70
2023-01-10T01:36:47.687Z,6.70
2023-01-10T01:38:50.263Z,6.70
2023-01-10T01:40:52.726Z,6.70
2023-01-10T01:42:55.395Z,6.70
2023-01-10T01:45:15.783Z,6.60
2023-01-10T01:47:20.102Z,6.60
2023-01-10T01:49:24.168Z,6.60
2023-01-10T01:51:28.429Z,6.60
2023-01-10T01:53:32.139Z,6.60
2023-01-10T01:55:35.426Z,6.60
2023-01-10T01:57:38.122Z,6.60
2023-01-10T01:59:42.059Z,6.60
2023-01-10T02:01:46.300Z,6.60
2023-01-10T02:03:50.699Z,6.60
2023-01-10T02:05:53.342Z,6.60
2023-01-10T02:07:57.692Z,6.60
2023-01-10T02:10:01.957Z,6.50
2023-01-10T02:12:05.263Z,6.60
2023-01-10T02:14:08.185Z,6.50
2023-01-10T02:16:11.282Z,6.50
2023-01-10T02:18:13.984Z,6.50
2023-01-10T02:20:17.707Z,6.50
2023-01-10T02:22:37.035Z,6.50
2023-01-10T02:24:45.294Z,6.60
2023-01-10T02:27:03.320Z,6.50
2023-01-10T02:29:11.087Z,6.50
2023-01-10T02:31:22.532Z,6.50
2023-01-10T02:33:26.943Z,6.50
2023-01-10T02:35:33.863Z,6.50
2023-01-10T02:37:39.733Z,6.50
2023-01-10T02:39:45.421Z,6.50
2023-01-10T02:41:50.294Z,6.50
2023-01-10T02:43:54.268Z,6.40
2023-01-10T02:45:58.358Z,6.40
2023-01-10T02:48:00.888Z,6.50
2023-01-10T02:50:18.900Z,6.50
2023-01-10T02:52:23.329Z,6.50
2023-01-10T02:54:28.701Z,6.40
2023-01-10T02:56:42.087Z,6.40
2023-01-10T02:58:49.900Z,6.50
2023-01-10T03:00:54.240Z,6.40
2023-01-10T03:03:01.198Z,6.40
2023-01-10T03:05:05.079Z,6.40
2023-01-10T03:07:10.891Z,6.40
2023-01-10T03:09:16.279Z,6.30
2023-01-10T03:11:22.404Z,6.30
2023-01-10T03:13:27.029Z,6.30
2023-01-10T03:15:31.520Z,6.30
2023-01-10T03:17:35.315Z,6.30
2023-01-10T03:19:40.025Z,6.30
2023-01-10T03:21:43.213Z,6.20
2023-01-10T03:23:47.266Z,6.20
2023-01-10T03:25:51.103Z,6.20
2023-01-10T03:27:55.586Z,6.20
2023-01-10T03:30:00.383Z,6.20
2023-01-10T03:32:04.763Z,6.20
2023-01-10T03:34:07.269Z,6.20
2023-01-10T03:36:15.692Z,6.10
2023-01-10T03:38:21.251Z,6.20
2023-01-10T03:40:25.639Z,6.10
2023-01-10T03:42:31.723Z,6.10
2023-01-10T03:44:45.082Z,6.10
2023-01-10T03:46:49.514Z,6.10
2023-01-10T03:48:52.740Z,6.10
2023-01-10T03:50:56.459Z,6.10
2023-01-10T03:52:59.386Z,6.00
2023-01-10T03:55:02.977Z,6.10
2023-01-10T03:57:05.907Z,6.10
2023-01-10T03:59:08.367Z,6.10
2023-01-10T04:01:10.973Z,6.10
2023-01-10T04:03:14.272Z,6.20
2023-01-10T04:05:16.925Z,6.10
2023-01-10T04:07:19.467Z,6.30
2023-01-10T04:09:22.116Z,6.20
2023-01-10T04:11:24.752Z,6.20
2023-01-10T04:13:27.241Z,6.20
2023-01-10T04:15:29.942Z,6.20
2023-01-10T04:17:32.434Z,6.20
2023-01-10T04:19:34.937Z,6.20
2023-01-10T04:21:37.424Z,6.10
2023-01-10T04:23:39.923Z,6.10
2023-01-10T04:25:42.503Z,6.10
2023-01-10T04:27:44.989Z,6.20
2023-01-10T04:29:47.467Z,6.20
2023-01-10T04:31:50.185Z,6.20
2023-01-10T04:33:52.771Z,6.20
2023-01-10T04:35:55.234Z,6.10
2023-01-10T04:37:57.815Z,6.10
2023-01-10T04:40:00.286Z,6.10
2023-01-10T04:42:03.094Z,6.10
2023-01-10T04:44:06.041Z,6.10
2023-01-10T04:46:08.625Z,6.00
2023-01-10T04:48:11.104Z,6.00
2023-01-10T04:50:13.678Z,5.90
2023-01-10T04:52:16.165Z,6.00
2023-01-10T04:54:20.611Z,6.00
2023-01-10T04:56:23.212Z,6.00
2023-01-10T04:58:25.734Z,6.00
2023-01-10T05:00:28.268Z,6.00
2023-01-10T05:02:30.895Z,6.00
2023-01-10T05:04:33.574Z,6.00
2023-01-10T05:06:36.440Z,6.00
2023-01-10T05:08:38.943Z,6.00
2023-01-10T05:10:41.436Z,6.10
2023-01-10T05:12:45.156Z,6.00
2023-01-10T05:14:47.627Z,6.00
2023-01-10T05:16:50.239Z,6.00
2023-01-10T05:18:52.865Z,6.00
2023-01-10T05:20:59.927Z,6.00
2023-01-10T05:23:02.448Z,6.00
2023-01-10T05:25:05.701Z,6.10
2023-01-10T05:27:08.271Z,6.10
2023-01-10T05:29:11.007Z,6.10
2023-01-10T05:31:15.817Z,6.10
2023-01-10T05:33:18.286Z,6.10
2023-01-10T05:35:20.777Z,6.20
2023-01-10T05:37:23.324Z,6.20
2023-01-10T05:39:25.833Z,6.10
2023-01-10T05:41:28.286Z,6.20
2023-01-10T05:43:30.919Z,6.20
2023-01-10T05:45:33.496Z,6.20
2023-01-10T05:47:36.004Z,6.20
2023-01-10T05:49:38.478Z,6.20
2023-01-10T05:51:41.964Z,6.20
2023-01-10T05:53:44.463Z,6.30
2023-01-10T05:55:52.710Z,6.30
2023-01-10T05:57:55.239Z,6.30
2023-01-10T05:59:57.745Z,6.30
2023-01-10T06:02:00.267Z,6.30
2023-01-10T06:04:03.327Z,6.30
2023-01-10T06:06:06.078Z,6.30
2023-01-10T06:08:08.706Z,6.30
2023-01-10T06:10:11.525Z,6.30
2023-01-10T06:12:14.116Z,6.30
2023-01-10T06:14:18.760Z,6.30
2023-01-10T06:16:21.333Z,6.30
2023-01-10T06:18:23.818Z,6.30
2023-01-10T06:20:26.430Z,6.30
2023-01-10T06:22:28.896Z,6.30
2023-01-10T06:24:31.400Z,6.40
2023-01-10T06:26:33.898Z,6.40
2023-01-10T06:28:36.545Z,6.30
2023-01-10T06:30:40.209Z,6.30
2023-01-10T06:32:42.731Z,6.40
2023-01-10T06:34:45.186Z,6.30
2023-01-10T06:36:47.710Z,6.30
2023-01-10T06:38:50.210Z,6.30
2023-01-10T06:40:52.678Z,6.30
2023-01-10T06:42:55.190Z,6.30
2023-01-10T06:44:57.676Z,6.30
2023-01-10T06:47:00.191Z,6.30
2023-01-10T06:49:02.847Z,6.30
2023-01-10T06:51:05.753Z,6.30
2023-01-10T06:53:08.759Z,6.40
2023-01-10T06:55:11.259Z,6.40
2023-01-10T06:57:13.831Z,6.30
2023-01-10T06:59:16.632Z,6.30
2023-01-10T07:01:19.989Z,6.40
2023-01-10T07:03:22.642Z,6.40
2023-01-10T07:05:25.262Z,6.40
2023-01-10T07:07:27.789Z,6.40
2023-01-10T07:09:30.399Z,6.40
2023-01-10T07:11:32.914Z,6.40
2023-01-10T07:13:35.806Z,6.40
2023-01-10T07:15:38.357Z,6.30
2023-01-10T07:17:40.816Z,6.40
2023-01-10T07:19:43.342Z,6.40
2023-01-10T07:21:45.849Z,6.40
2023-01-10T07:23:49.335Z,6.40
2023-01-10T07:25:51.819Z,6.40
2023-01-10T07:27:55.082Z,6.40
2023-01-10T07:29:57.579Z,6.40
2023-01-10T07:32:00.113Z,6.50
2023-01-10T07:34:02.682Z,6.50
2023-01-10T07:36:05.736Z,6.40
2023-01-10T07:38:08.696Z,6.40
2023-01-10T07:40:16.817Z,6.50
2023-01-10T07:42:19.305Z,6.40
2023-01-10T07:44:22.233Z,6.50
2023-01-10T07:46:25.660Z,6.40
2023-01-10T07:48:28.516Z,6.40
2023-01-10T07:50:32.159Z,6.50
2023-01-10T07:52:34.698Z,6.40
2023-01-10T07:54:37.332Z,6.50
2023-01-10T07:56:39.836Z,6.50
2023-01-10T07:58:42.466Z,6.50
2023-01-10T08:00:45.477Z,6.40
2023-01-10T08:02:48.056Z,6.50
2023-01-10T08:04:50.580Z,6.50
2023-01-10T08:06:54.614Z,6.50
2023-01-10T08:08:57.153Z,6.50
2023-01-10T08:10:59.629Z,6.50
2023-01-10T08:13:17.136Z,6.50
2023-01-10T08:15:08.230Z,6.50
2023-01-10T08:17:10.748Z,6.50
2023-01-10T08:19:15.107Z,6.50
2023-01-10T08:21:17.604Z,6.50
2023-01-10T08:23:20.616Z,6.50
2023-01-10T08:25:23.093Z,6.60
2023-01-10T08:27:25.587Z,6.60
2023-01-10T08:29:28.291Z,6.60
2023-01-10T08:31:30.854Z,6.60
2023-01-10T08:33:33.436Z,6.60
2023-01-10T08:35:37.636Z,6.60
2023-01-10T08:37:40.263Z,6.60
2023-01-10T08:39:42.786Z,6.60
2023-01-10T08:41:45.308Z,6.70
2023-01-10T08:43:50.089Z,6.70
2023-01-10T08:45:52.733Z,6.70
2023-01-10T08:47:56.907Z,6.70
2023-01-10T08:49:59.813Z,6.70
2023-01-10T08:52:02.702Z,6.70
2023-01-10T08:54:05.225Z,6.70
2023-01-10T08:56:08.392Z,6.70
2023-01-10T08:58:23.554Z,6.60
2023-01-10T09:00:27.943Z,6.70
2023-01-10T09:02:30.513Z,6.70
2023-01-10T09:04:33.313Z,6.70
2023-01-10T09:06:36.407Z,6.70
2023-01-10T09:08:38.860Z,6.70
2023-01-10T09:10:41.535Z,6.70
2023-01-10T09:12:55.981Z,6.80
2023-01-10T09:14:58.442Z,6.70
2023-01-10T09:17:00.967Z,6.80
2023-01-10T09:19:04.395Z,6.70
2023-01-10T09:21:07.112Z,6.80
2023-01-10T09:23:10.604Z,6.80
2023-01-10T09:25:13.090Z,6.80
2023-01-10T09:27:15.630Z,6.80
2023-01-10T09:29:18.118Z,6.80
2023-01-10T09:31:21.786Z,6.70
2023-01-10T09:33:26.527Z,6.80
2023-01-10T09:35:29.989Z,6.80
2023-01-10T09:37:34.009Z,6.80
2023-01-10T09:39:36.498Z,6.80
2023-01-10T09:42:02.305Z,6.90
2023-01-10T09:44:06.277Z,6.90
2023-01-10T09:46:10.687Z,6.90
2023-01-10T09:48:15.344Z,6.90
2023-01-10T09:50:20.362Z,6.90
2023-01-10T09:52:24.831Z,7.00
2023-01-10T09:54:28.636Z,7.10
2023-01-10T09:56:32.913Z,7.10
2023-01-10T09:58:36.871Z,7.10
2023-01-10T10:00:41.013Z,7.20
2023-01-10T10:02:45.297Z,7.20
2023-01-10T10:04:49.662Z,7.20
2023-01-10T10:06:52.376Z,7.20
2023-01-10T10:08:54.853Z,7.20
2023-01-10T10:11:03.219Z,7.20
2023-01-10T10:13:14.035Z,7.20
2023-01-10T10:15:18.477Z,7.20
2023-01-10T10:17:27.385Z,7.20
2023-01-10T10:19:31.747Z,7.20
2023-01-10T10:21:37.143Z,7.20
2023-01-10T10:23:43.948Z,7.20
2023-01-10T10:25:50.801Z,7.30
2023-01-10T10:28:10.495Z,7.40
2023-01-10T10:30:22.735Z,7.40
2023-01-10T10:32:34.746Z,7.30
2023-01-10T10:34:39.923Z,7.40
2023-01-10T10:36:44.538Z,7.40
2023-01-10T10:38:47.741Z,7.40
2023-01-10T10:40:50.839Z,7.40
2023-01-10T10:42:54.959Z,7.40
2023-01-10T10:44:59.658Z,7.40
2023-01-10T10:47:02.174Z,7.40
2023-01-10T10:49:06.541Z,7.40
2023-01-10T10:51:11.173Z,7.40
2023-01-10T10:53:13.652Z,7.50
2023-01-10T10:55:17.425Z,7.60
2023-01-10T10:57:21.118Z,7.60
2023-01-10T10:59:23.631Z,7.70
2023-01-10T11:01:26.923Z,7.70
2023-01-10T11:03:32.290Z,7.90
2023-01-10T11:05:37.177Z,8.10
2023-01-10T11:07:40.358Z,8.20
2023-01-10T11:09:43.442Z,8.10
2023-01-10T11:11:49.749Z,8.00
2023-01-10T11:13:53.863Z,7.90
2023-01-10T11:16:00.482Z,8.00
2023-01-10T11:18:05.111Z,7.90
2023-01-10T11:20:14.535Z,8.00
2023-01-10T11:22:17.120Z,8.00
2023-01-10T11:24:22.627Z,8.10
2023-01-10T11:26:26.505Z,8.00
2023-01-10T11:28:30.407Z,8.10
2023-01-10T11:30:33.931Z,8.00
2023-01-10T11:32:38.115Z,8.10
2023-01-10T11:34:41.529Z,8.10
2023-01-10T11:36:54.370Z,8.10
2023-01-10T11:39:03.087Z,8.10
2023-01-10T11:41:06.587Z,8.20
2023-01-10T11:43:24.204Z,8.20
2023-01-10T11:45:29.761Z,8.10
2023-01-10T11:47:38.092Z,8.20
2023-01-10T11:49:38.896Z,8.20
2023-01-10T11:51:43.249Z,8.00
2023-01-10T11:53:46.631Z,8.10
2023-01-10T11:55:49.127Z,8.10
2023-01-10T11:57:56.307Z,8.40
2023-01-10T12:00:00.361Z,8.00
2023-01-10T12:02:04.697Z,8.00
2023-01-10T12:04:08.152Z,8.00
2023-01-10T12:06:12.460Z,8.00
2023-01-10T12:08:17.378Z,8.00
2023-01-10T12:10:21.483Z,8.10
2023-01-10T12:12:25.341Z,8.00
2023-01-10T12:14:27.990Z,8.00
2023-01-10T12:16:31.124Z,8.00
2023-01-10T12:18:33.625Z,7.90
2023-01-10T12:20:37.956Z,8.00
2023-01-10T12:22:41.184Z,8.00
2023-01-10T12:24:44.997Z,8.00
2023-01-10T12:26:49.812Z,8.00
2023-01-10T12:29:04.908Z,8.00
2023-01-10T12:31:13.901Z,8.00
2023-01-10T12:33:18.749Z,8.00
2023-01-10T12:35:23.062Z,8.00
2023-01-10T12:37:28.171Z,8.00
2023-01-10T12:39:33.203Z,8.00
2023-01-10T12:41:56.569Z,8.00
2023-01-10T12:44:14.307Z,8.00
2023-01-10T12:46:33.611Z,8.00
2023-01-10T12:48:25.403Z,8.00
2023-01-10T12:50:31.734Z,8.10
2023-01-10T12:52:36.553Z,8.10
2023-01-10T12:54:39.158Z,8.10
2023-01-10T12:56:42.106Z,8.10
2023-01-10T12:58:46.615Z,8.10
2023-01-10T13:00:50.979Z,8.10
2023-01-10T13:02:55.133Z,8.20
2023-01-10T13:04:59.488Z,8.20
2023-01-10T13:07:02.580Z,8.20
2023-01-10T13:09:05.940Z,8.20
2023-01-10T13:11:10.564Z,8.20
2023-01-10T13:13:15.834Z,8.10
2023-01-10T13:15:20.750Z,8.20
2023-01-10T13:17:28.127Z,8.20
2023-01-10T13:19:30.721Z,8.10
2023-01-10T13:21:34.134Z,8.20
2023-01-10T13:23:38.411Z,8.20
2023-01-10T13:25:40.960Z,8.20
2023-01-10T13:27:43.596Z,8.20
2023-01-10T13:29:48.040Z,8.10
2023-01-10T13:31:52.740Z,8.10
2023-01-10T13:33:56.059Z,8.20
2023-01-10T13:36:01.334Z,8.10
2023-01-10T13:38:05.563Z,8.20
2023-01-10T13:40:10.767Z,8.10
2023-01-10T13:42:42.072Z,8.10
2023-01-10T13:45:03.677Z,8.10
2023-01-10T13:47:09.219Z,8.20
2023-01-10T13:49:46.203Z,8.10
2023-01-10T13:52:07.818Z,8.10
2023-01-10T13:54:27.558Z,8.10
2023-01-10T13:56:40.143Z,8.10
2023-01-10T13:59:00.802Z,8.10
2023-01-10T14:01:22.101Z,8.10
2023-01-10T14:03:37.539Z,8.10
2023-01-10T14:05:41.834Z,8.10
2023-01-10T14:07:45.076Z,8.10
2023-01-10T14:09:49.086Z,8.10
2023-01-10T14:11:52.707Z,8.10
2023-01-10T14:13:58.976Z,8.10
2023-01-10T14:16:04.353Z,8.10
2023-01-10T14:18:07.671Z,8.10
2023-01-10T14:20:17.064Z,8.10
2023-01-10T14:22:25.215Z,8.10
2023-01-10T14:24:28.975Z,8.00
2023-01-10T14:26:33.024Z,8.00
2023-01-10T14:28:36.059Z,8.00
2023-01-10T14:30:40.399Z,8.00
2023-01-10T14:32:43.282Z,8.00
2023-01-10T14:34:46.558Z,8.00
2023-01-10T14:36:51.469Z,8.00
2023-01-10T14:38:56.953Z,8.00
2023-01-10T14:41:01.100Z,8.10
2023-01-10T14:43:04.790Z,8.00
2023-01-10T14:45:15.041Z,8.00
2023-01-10T14:47:27.988Z,8.00
2023-01-10T14:49:33.472Z,8.00
2023-01-10T14:51:36.104Z,8.00
2023-01-10T14:53:40.190Z,7.90
2023-01-10T14:55:42.926Z,7.90
2023-01-10T14:57:53.745Z,7.90
2023-01-10T15:00:04.201Z,8.00
2023-01-10T15:02:12.225Z,7.90
2023-01-10T15:04:15.828Z,7.90
2023-01-10T15:06:18.294Z,8.20
2023-01-10T15:08:22.192Z,7.90
2023-01-10T15:10:25.937Z,7.80
2023-01-10T15:12:29.648Z,7.80
2023-01-10T15:14:33.155Z,7.80
2023-01-10T15:16:38.465Z,7.80
2023-01-10T15:18:42.854Z,7.70
2023-01-10T15:20:46.000Z,7.70
2023-01-10T15:22:50.214Z,7.70
2023-01-10T15:25:00.263Z,7.70
2023-01-10T15:27:03.960Z,7.70
2023-01-10T15:29:08.909Z,7.70
2023-01-10T15:31:13.260Z,7.70
2023-01-10T15:33:17.070Z,7.70
2023-01-10T15:35:27.186Z,7.70
2023-01-10T15:37:27.060Z,7.70
2023-01-10T15:39:30.674Z,7.70
2023-01-10T15:41:34.802Z,7.70
2023-01-10T15:43:37.974Z,7.70
2023-01-10T15:45:42.243Z,7.70
2023-01-10T15:47:52.096Z,7.70
2023-01-10T15:49:54.679Z,7.70
2023-01-10T15:51:57.824Z,7.70
2023-01-10T15:54:03.842Z,7.70
2023-01-10T15:56:11.115Z,7.70
2023-01-10T15:58:18.804Z,7.70
2023-01-10T16:00:22.706Z,7.70
2023-01-10T16:02:26.092Z,7.70
2023-01-10T16:04:30.588Z,7.70
2023-01-10T16:06:34.360Z,7.60
2023-01-10T16:08:37.897Z,7.70
2023-01-10T16:10:40.352Z,7.70
2023-01-10T16:13:01.076Z,7.70
2023-01-10T16:15:10.357Z,7.70
2023-01-10T16:17:13.595Z,7.70
2023-01-10T16:19:16.120Z,7.60
2023-01-10T16:21:20.441Z,7.60
2023-01-10T16:23:24.323Z,7.60
2023-01-10T16:25:28.492Z,7.60
2023-01-10T16:27:31.277Z,7.60
2023-01-10T16:29:33.836Z,7.60
2023-01-10T16:31:36.497Z,7.60
2023-01-10T16:33:40.477Z,7.60
2023-01-10T16:35:43.162Z,7.60
2023-01-10T16:37:45.871Z,7.60
2023-01-10T16:39:48.342Z,7.50
2023-01-10T16:42:08.979Z,7.50
2023-01-10T16:44:11.451Z,7.50
2023-01-10T16:46:14.006Z,7.50
2023-01-10T16:48:17.460Z,7.50
2023-01-10T16:50:20.292Z,7.40
2023-01-10T16:52:22.940Z,7.40
2023-01-10T16:54:25.574Z,7.40
2023-01-10T16:56:28.454Z,7.40
2023-01-10T16:58:30.978Z,7.40
2023-01-10T17:00:33.634Z,7.50
2023-01-10T17:02:36.179Z,7.40
2023-01-10T17:04:39.600Z,7.50
2023-01-10T17:06:42.136Z,7.50
2023-01-10T17:08:44.649Z,7.50
2023-01-10T17:10:49.082Z,7.40
2023-01-10T17:12:51.584Z,7.50
2023-01-10T17:14:54.094Z,7.40
2023-01-10T17:16:56.576Z,7.50
2023-01-10T17:18:59.256Z,7.50
2023-01-10T17:21:01.789Z,7.50
2023-01-10T17:23:04.433Z,7.40
2023-01-10T17:25:09.908Z,7.40
2023-01-10T17:27:12.568Z,7.40
2023-01-10T17:29:15.057Z,7.40
2023-01-10T17:31:19.049Z,7.40
2023-01-10T17:33:22.408Z,7.40
2023-01-10T17:35:27.298Z,7.40
2023-01-10T17:37:29.901Z,7.30
2023-01-10T17:39:32.360Z,7.20
2023-01-10T17:41:35.324Z,7.20
2023-01-10T17:43:39.058Z,7.10
2023-01-10T17:45:42.046Z,7.10
2023-01-10T17:47:44.511Z,7.00
2023-01-10T17:49:47.071Z,7.00
2023-01-10T17:51:49.770Z,6.90
2023-01-10T17:53:54.199Z,6.80
2023-01-10T17:55:57.832Z,6.70
2023-01-10T17:58:02.107Z,6.70
2023-01-10T18:00:05.901Z,6.60
2023-01-10T18:02:12.734Z,6.50
2023-01-10T18:04:19.209Z,6.50
2023-01-10T18:06:24.887Z,6.50
2023-01-10T18:08:32.257Z,6.40
2023-01-10T18:10:35.026Z,6.40
2023-01-10T18:12:37.791Z,6.40
2023-01-10T18:14:40.253Z,6.50
2023-01-10T18:16:42.879Z,6.40
2023-01-10T18:18:45.428Z,6.40
2023-01-10T18:20:49.334Z,6.40
2023-01-10T18:23:10.184Z,6.40
2023-01-10T18:25:14.656Z,6.40
2023-01-10T18:27:17.144Z,6.40
2023-01-10T18:29:19.887Z,6.40
2023-01-10T18:31:22.466Z,6.40
2023-01-10T18:33:25.062Z,6.40
2023-01-10T18:35:29.815Z,6.40
2023-01-10T18:37:34.099Z,6.40
2023-01-10T18:39:36.670Z,6.30
2023-01-10T18:41:39.251Z,6.30
2023-01-10T18:43:41.793Z,6.30
2023-01-10T18:45:44.769Z,6.40
2023-01-10T18:47:51.362Z,6.40
2023-01-10T18:49:53.887Z,6.30
2023-01-10T18:51:56.403Z,6.30
2023-01-10T18:53:59.042Z,6.30
2023-01-10T18:56:03.845Z,6.30
2023-01-10T18:58:06.391Z,6.30
2023-01-10T19:00:09.951Z,6.10
2023-01-10T19:02:13.805Z,6.20
2023-01-10T19:04:17.870Z,6.20
2023-01-10T19:06:22.110Z,6.20
2023-01-10T19:08:24.684Z,6.10
2023-01-10T19:10:27.182Z,6.90
2023-01-10T19:12:30.497Z,6.20
2023-01-10T19:14:33.692Z,6.20
2023-01-10T19:16:36.468Z,6.20
2023-01-10T19:18:39.079Z,6.30
2023-01-10T19:20:41.570Z,6.20
2023-01-10T19:22:45.608Z,6.20
2023-01-10T19:24:48.555Z,6.30
2023-01-10T19:26:51.383Z,6.30
2023-01-10T19:28:54.144Z,6.40
2023-01-10T19:31:04.010Z,6.40
2023-01-10T19:33:01.658Z,6.50
2023-01-10T19:35:04.466Z,6.50
2023-01-10T19:37:07.217Z,6.50
2023-01-10T19:39:10.205Z,6.60
2023-01-10T19:41:13.895Z,6.50
2023-01-10T19:43:16.606Z,6.50
2023-01-10T19:45:19.260Z,6.50
2023-01-10T19:47:21.776Z,6.60
2023-01-10T19:49:24.494Z,6.60
2023-01-10T19:51:27.046Z,6.60
2023-01-10T19:53:29.709Z,6.60
2023-01-10T19:55:32.529Z,6.60
2023-01-10T19:57:35.124Z,6.60
2023-01-10T19:59:37.660Z,6.60
2023-01-10T20:01:40.543Z,6.60
2023-01-10T20:03:44.997Z,6.60
2023-01-10T20:05:47.819Z,6.80
2023-01-10T20:07:52.661Z,6.70
2023-01-10T20:09:56.464Z,6.80
2023-01-10T20:11:59.541Z,6.80
2023-01-10T20:14:02.406Z,6.80
2023-01-10T20:16:06.688Z,6.80
2023-01-10T20:18:10.343Z,6.90
2023-01-10T20:20:13.883Z,6.90
2023-01-10T20:22:16.774Z,6.90
2023-01-10T20:24:20.537Z,6.90
2023-01-10T20:26:25.466Z,6.90
2023-01-10T20:28:29.154Z,6.90
2023-01-10T20:30:32.004Z,6.90
2023-01-10T20:32:34.450Z,6.90
2023-01-10T20:34:37.893Z,7.00
2023-01-10T20:36:41.244Z,7.00
2023-01-10T20:38:44.977Z,7.00
2023-01-10T20:40:49.279Z,7.10
2023-01-10T20:42:52.076Z,7.10
2023-01-10T20:44:54.787Z,7.10
2023-01-10T20:46:57.314Z,7.10
2023-01-10T20:49:02.342Z,7.10
2023-01-10T20:51:04.645Z,7.10
2023-01-10T20:53:07.152Z,7.00
2023-01-10T20:55:09.965Z,7.00
2023-01-10T20:57:12.449Z,7.10
2023-01-10T20:59:15.089Z,7.00
2023-01-10T21:01:28.819Z,7.10
2023-01-10T21:03:22.267Z,7.00
2023-01-10T21:05:24.951Z,7.10
2023-01-10T21:07:28.839Z,7.10
2023-01-10T21:09:31.669Z,7.10
2023-01-10T21:11:47.696Z,7.10
2023-01-10T21:13:40.375Z,7.10
2023-01-10T21:15:43.884Z,7.20
2023-01-10T21:17:49.006Z,7.20
2023-01-10T21:19:51.479Z,7.20
2023-01-10T21:21:54.549Z,7.30
2023-01-10T21:23:57.058Z,7.30
2023-01-10T21:26:02.281Z,7.40
2023-01-10T21:28:07.159Z,7.40
2023-01-10T21:30:11.226Z,7.40
2023-01-10T21:32:13.863Z,7.40
2023-01-10T21:34:16.379Z,7.50
2023-01-10T21:36:18.858Z,7.60
2023-01-10T21:38:21.371Z,7.60
2023-01-10T21:40:23.860Z,7.60
2023-01-10T21:42:37.046Z,7.60
2023-01-10T21:44:39.563Z,7.70
2023-01-10T21:46:47.386Z,7.60
2023-01-10T21:48:50.098Z,7.70
2023-01-10T21:50:52.587Z,7.70
2023-01-10T21:52:55.079Z,7.70
2023-01-10T21:54:57.881Z,7.70
2023-01-10T21:57:00.328Z,7.70
2023-01-10T21:59:02.914Z,7.70
2023-01-10T22:01:05.765Z,7.80
2023-01-10T22:03:08.435Z,7.80
2023-01-10T22:05:11.053Z,7.80
2023-01-10T22:07:13.506Z,8.20
2023-01-10T22:09:16.352Z,7.80
2023-01-10T22:11:18.838Z,7.80
2023-01-10T22:13:21.305Z,7.90
2023-01-10T22:15:23.820Z,7.90
2023-01-10T22:17:26.297Z,7.90
2023-01-10T22:19:28.788Z,7.90
2023-01-10T22:21:31.255Z,7.90
2023-01-10T22:23:34.392Z,7.90
2023-01-10T22:25:36.888Z,7.90
2023-01-10T22:27:39.378Z,8.00
2023-01-10T22:29:41.859Z,8.00
2023-01-10T22:31:44.376Z,8.00
2023-01-10T22:33:46.831Z,8.10
2023-01-10T22:35:49.336Z,8.10
2023-01-10T22:37:53.580Z,8.10
2023-01-10T22:39:56.086Z,8.10
2023-01-10T22:41:58.574Z,8.20
2023-01-10T22:44:02.487Z,8.20
2023-01-10T22:46:05.933Z,8.30
2023-01-10T22:48:08.788Z,8.30
2023-01-10T22:50:11.478Z,8.30
2023-01-10T22:52:14.018Z,8.40
2023-01-10T22:54:17.681Z,8.40
2023-01-10T22:56:20.487Z,8.40
2023-01-10T22:58:23.040Z,8.30
2023-01-10T23:00:27.016Z,8.40
2023-01-10T23:02:30.093Z,8.30
2023-01-10T23:04:32.617Z,8.40
2023-01-10T23:06:35.433Z,8.50
2023-01-10T23:08:38.318Z,8.50
2023-01-10T23:10:41.415Z,8.50
2023-01-10T23:12:43.961Z,8.40
2023-01-10T23:14:46.524Z,8.40
2023-01-10T23:16:49.811Z,8.40
2023-01-10T23:18:52.593Z,8.50
2023-01-10T23:20:55.129Z,8.50
2023-01-10T23:22:57.782Z,8.50
2023-01-10T23:25:00.958Z,8.60
2023-01-10T23:27:03.445Z,8.60
2023-01-10T23:29:05.991Z,8.60
2023-01-10T23:31:10.551Z,8.60
2023-01-10T23:33:14.341Z,8.70
2023-01-10T23:35:18.048Z,8.70
2023-01-10T23:37:20.988Z,8.80
2023-01-10T23:39:23.524Z,8.80
2023-01-10T23:41:27.151Z,8.80
2023-01-10T23:43:31.413Z,8.80
2023-01-10T23:45:34.271Z,8.80
2023-01-10T23:47:36.888Z,8.90
2023-01-10T23:49:39.445Z,8.90
2023-01-10T23:51:42.151Z,8.90
2023-01-10T23:53:44.707Z,8.90
2023-01-10T23:55:47.196Z,8.90
2023-01-10T23:57:49.891Z,8.90
2023-01-10T23:59:53.462Z,8.90
